Aviation Digital Data Service (ADDS)

Output produced by METARs form (1101 UTC 07 December 2022)
found at http://www.aviationweather.gov/metar/data/
 
METAR text: RJTI 070700Z 18003KT 150V210 9999 FEW030 BKN/// 12/02 Q1015
Conditions at: RJTI (TOKYO HELIPORT , JP) observed 0700 UTC 07 December 2022
Temperature: 12.0°C (54°F)
Dewpoint: 2.0°C (36°F) [RH = 50%]
Pressure (altimeter): 29.97 inches Hg (1015.0 mb)
Winds: from the S (180 degrees) at 3 MPH (3 knots; 1.5 m/s)
Visibility: 6 or more miles (10+ km)
Ceiling: at least 12,000 feet AGL
Clouds: few clouds at 3000 feet AGL
Weather: no significant weather observed at this time